sensor_id;sensor_type;location;lat;lon;timestamp;pressure;altitude;pressure_sealevel;temperature;humidity
46129;BME280;31860;45.186;5.790;2022-12-07T00:00:27;99330.31;;;7.43;82.57
46129;BME280;31860;45.186;5.790;2022-12-07T00:02:53;99321.66;;;7.43;82.53
46129;BME280;31860;45.186;5.790;2022-12-07T00:05:18;99328.59;;;7.42;82.16
46129;BME280;31860;45.186;5.790;2022-12-07T00:07:44;99321.63;;;7.41;82.70
46129;BME280;31860;45.186;5.790;2022-12-07T00:10:09;99319.00;;;7.40;82.72
46129;BME280;31860;45.186;5.790;2022-12-07T00:12:34;99321.63;;;7.40;82.75
46129;BME280;31860;45.186;5.790;2022-12-07T00:15:00;99313.78;;;7.37;82.53
46129;BME280;31860;45.186;5.790;2022-12-07T00:17:25;99317.19;;;7.33;82.39
46129;BME280;31860;45.186;5.790;2022-12-07T00:19:50;99310.22;;;7.32;82.68
46129;BME280;31860;45.186;5.790;2022-12-07T00:22:16;99306.78;;;7.31;82.67
46129;BME280;31860;45.186;5.790;2022-12-07T00:24:41;99313.69;;;7.29;82.68
46129;BME280;31860;45.186;5.790;2022-12-07T00:27:07;99310.19;;;7.27;82.72
46129;BME280;31860;45.186;5.790;2022-12-07T00:29:32;99313.69;;;7.29;83.10
46129;BME280;31860;45.186;5.790;2022-12-07T00:31:57;99308.47;;;7.29;82.96
46129;BME280;31860;45.186;5.790;2022-12-07T00:34:23;99308.47;;;7.29;83.02
46129;BME280;31860;45.186;5.790;2022-12-07T00:36:49;99311.09;;;7.29;82.89
46129;BME280;31860;45.186;5.790;2022-12-07T00:39:18;99314.53;;;7.30;82.96
46129;BME280;31860;45.186;5.790;2022-12-07T00:41:43;99308.47;;;7.29;82.80
46129;BME280;31860;45.186;5.790;2022-12-07T00:44:09;99312.81;;;7.30;82.71
46129;BME280;31860;45.186;5.790;2022-12-07T00:46:34;99308.47;;;7.29;82.75
46129;BME280;31860;45.186;5.790;2022-12-07T00:49:00;99315.38;;;7.29;82.82
46129;BME280;31860;45.186;5.790;2022-12-07T00:51:25;99315.38;;;7.27;82.79
46129;BME280;31860;45.186;5.790;2022-12-07T00:53:51;99315.34;;;7.26;82.96
46129;BME280;31860;45.186;5.790;2022-12-07T00:56:20;99310.09;;;7.23;83.02
46129;BME280;31860;45.186;5.790;2022-12-07T00:58:56;99307.47;;;7.21;82.71
46129;BME280;31860;45.186;5.790;2022-12-07T01:01:24;99311.78;;;7.19;83.01
46129;BME280;31860;45.186;5.790;2022-12-07T01:03:50;99316.06;;;7.17;82.87
46129;BME280;31860;45.186;5.790;2022-12-07T01:06:17;99313.47;;;7.17;83.12
46129;BME280;31860;45.186;5.790;2022-12-07T01:08:43;99308.28;;;7.17;83.09
46129;BME280;31860;45.186;5.790;2022-12-07T01:11:12;99324.72;;;7.16;83.46
46129;BME280;31860;45.186;5.790;2022-12-07T01:13:38;99324.72;;;7.16;83.68
46129;BME280;31860;45.186;5.790;2022-12-07T01:16:05;99323.88;;;7.17;84.10
46129;BME280;31860;45.186;5.790;2022-12-07T01:18:34;99326.47;;;7.17;84.33
46129;BME280;31860;45.186;5.790;2022-12-07T01:23:25;99323.88;;;7.17;85.02
46129;BME280;31860;45.186;5.790;2022-12-07T01:25:57;99320.44;;;7.18;84.89
46129;BME280;31860;45.186;5.790;2022-12-07T01:28:23;99323.88;;;7.17;85.14
46129;BME280;31860;45.186;5.790;2022-12-07T01:31:00;99323.03;;;7.18;85.27
46129;BME280;31860;45.186;5.790;2022-12-07T01:33:31;99326.47;;;7.17;85.43
46129;BME280;31860;45.186;5.790;2022-12-07T01:36:05;99318.69;;;7.17;85.27
46129;BME280;31860;45.186;5.790;2022-12-07T01:38:32;99319.53;;;7.16;85.44
46129;BME280;31860;45.186;5.790;2022-12-07T01:40:58;99319.56;;;7.18;85.33
46129;BME280;31860;45.186;5.790;2022-12-07T01:43:27;99313.50;;;7.19;85.53
46129;BME280;31860;45.186;5.790;2022-12-07T01:45:53;99310.06;;;7.18;85.65
46129;BME280;31860;45.186;5.790;2022-12-07T01:48:22;99313.50;;;7.19;85.55
46129;BME280;31860;45.186;5.790;2022-12-07T01:50:51;99310.06;;;7.18;85.59
46129;BME280;31860;45.186;5.790;2022-12-07T01:53:19;99307.44;;;7.18;85.95
46129;BME280;31860;45.186;5.790;2022-12-07T01:55:49;99310.06;;;7.18;85.49
46129;BME280;31860;45.186;5.790;2022-12-07T01:58:17;99303.13;;;7.20;85.63
46129;BME280;31860;45.186;5.790;2022-12-07T02:00:42;99302.28;;;7.20;85.34
46129;BME280;31860;45.186;5.790;2022-12-07T02:03:18;99296.19;;;7.19;85.15
46129;BME280;31860;45.186;5.790;2022-12-07T02:05:46;99296.19;;;7.19;85.34
46129;BME280;31860;45.186;5.790;2022-12-07T02:08:13;99293.59;;;7.19;85.31
46129;BME280;31860;45.186;5.790;2022-12-07T02:10:40;99297.94;;;7.20;85.21
46129;BME280;31860;45.186;5.790;2022-12-07T02:13:15;99298.78;;;7.19;85.13
46129;BME280;31860;45.186;5.790;2022-12-07T02:18:35;99301.41;;;7.19;85.47
46129;BME280;31860;45.186;5.790;2022-12-07T02:21:34;99294.47;;;7.18;85.80
46129;BME280;31860;45.186;5.790;2022-12-07T02:30:23;99296.19;;;7.19;85.88
46129;BME280;31860;45.186;5.790;2022-12-07T02:35:33;99291.00;;;7.19;86.19
46129;BME280;31860;45.186;5.790;2022-12-07T02:38:25;99299.69;;;7.21;86.06
46129;BME280;31860;45.186;5.790;2022-12-07T02:40:52;99293.63;;;7.21;86.08
46129;BME280;31860;45.186;5.790;2022-12-07T02:43:25;99295.34;;;7.20;86.03
46129;BME280;31860;45.186;5.790;2022-12-07T02:45:53;99289.28;;;7.18;85.78
46129;BME280;31860;45.186;5.790;2022-12-07T02:48:21;99296.22;;;7.22;86.15
46129;BME280;31860;45.186;5.790;2022-12-07T02:50:51;99298.81;;;7.22;85.93
46129;BME280;31860;45.186;5.790;2022-12-07T02:53:39;99303.19;;;7.22;86.12
46129;BME280;31860;45.186;5.790;2022-12-07T03:15:55;99290.97;;;7.16;87.34
46129;BME280;31860;45.186;5.790;2022-12-07T03:18:25;99292.69;;;7.17;87.24
46129;BME280;31860;45.186;5.790;2022-12-07T03:20:55;99282.34;;;7.19;87.32
46129;BME280;31860;45.186;5.790;2022-12-07T03:23:25;99279.72;;;7.19;86.98
46129;BME280;31860;45.186;5.790;2022-12-07T03:25:55;99284.94;;;7.20;86.93
46129;BME280;31860;45.186;5.790;2022-12-07T03:28:24;99279.72;;;7.19;86.73
46129;BME280;31860;45.186;5.790;2022-12-07T03:31:03;99281.53;;;7.23;86.61
46129;BME280;31860;45.186;5.790;2022-12-07T03:36:35;99283.31;;;7.25;86.12
46129;BME280;31860;45.186;5.790;2022-12-07T03:41:49;99274.59;;;7.22;86.74
46129;BME280;31860;45.186;5.790;2022-12-07T03:44:15;99282.41;;;7.23;86.95
46129;BME280;31860;45.186;5.790;2022-12-07T03:52:40;99284.19;;;7.26;86.72
46129;BME280;31860;45.186;5.790;2022-12-07T03:55:18;99271.22;;;7.27;86.52
46129;BME280;31860;45.186;5.790;2022-12-07T03:57:48;99278.16;;;7.30;86.63
46129;BME280;31860;45.186;5.790;2022-12-07T04:00:15;99275.56;;;7.30;86.50
46129;BME280;31860;45.186;5.790;2022-12-07T04:02:42;99270.38;;;7.30;86.65
46129;BME280;31860;45.186;5.790;2022-12-07T04:05:08;99268.66;;;7.30;86.65
46129;BME280;31860;45.186;5.790;2022-12-07T04:07:34;99265.22;;;7.31;86.27
46129;BME280;31860;45.186;5.790;2022-12-07T04:09:59;99273.03;;;7.33;86.34
46129;BME280;31860;45.186;5.790;2022-12-07T04:12:25;99260.88;;;7.32;86.41
46129;BME280;31860;45.186;5.790;2022-12-07T04:14:51;99259.16;;;7.34;86.20
46129;BME280;31860;45.186;5.790;2022-12-07T04:17:17;99253.97;;;7.32;86.15
46129;BME280;31860;45.186;5.790;2022-12-07T04:19:42;99259.16;;;7.34;85.97
46129;BME280;31860;45.186;5.790;2022-12-07T04:22:08;99257.44;;;7.33;86.21
46129;BME280;31860;45.186;5.790;2022-12-07T04:24:34;99256.56;;;7.34;86.08
46129;BME280;31860;45.186;5.790;2022-12-07T04:26:59;99257.44;;;7.33;86.41
46129;BME280;31860;45.186;5.790;2022-12-07T04:29:25;99253.13;;;7.33;86.58
46129;BME280;31860;45.186;5.790;2022-12-07T04:31:52;99262.66;;;7.34;86.27
46129;BME280;31860;45.186;5.790;2022-12-07T04:34:18;99265.22;;;7.33;86.32
46129;BME280;31860;45.186;5.790;2022-12-07T04:36:44;99263.50;;;7.33;86.45
46129;BME280;31860;45.186;5.790;2022-12-07T04:39:26;99271.31;;;7.35;86.81
46129;BME280;31860;45.186;5.790;2022-12-07T04:41:51;99266.06;;;7.30;87.36
46129;BME280;31860;45.186;5.790;2022-12-07T04:44:17;99260.88;;;7.32;87.83
46129;BME280;31860;45.186;5.790;2022-12-07T04:46:43;99260.06;;;7.34;88.21
46129;BME280;31860;45.186;5.790;2022-12-07T04:49:11;99258.31;;;7.33;88.50
46129;BME280;31860;45.186;5.790;2022-12-07T04:51:36;99251.38;;;7.35;88.32
46129;BME280;31860;45.186;5.790;2022-12-07T04:54:02;99252.28;;;7.37;88.31
46129;BME280;31860;45.186;5.790;2022-12-07T04:56:28;99247.97;;;7.39;88.12
46129;BME280;31860;45.186;5.790;2022-12-07T04:58:54;99255.75;;;7.36;88.91
46129;BME280;31860;45.186;5.790;2022-12-07T05:01:21;99251.38;;;7.35;89.18
46129;BME280;31860;45.186;5.790;2022-12-07T05:03:47;99247.06;;;7.36;89.43
46129;BME280;31860;45.186;5.790;2022-12-07T05:06:13;99248.84;;;7.37;88.64
46129;BME280;31860;45.186;5.790;2022-12-07T05:08:40;99241.88;;;7.36;87.85
46129;BME280;31860;45.186;5.790;2022-12-07T05:11:06;99240.16;;;7.36;87.54
46129;BME280;31860;45.186;5.790;2022-12-07T05:13:32;99240.19;;;7.38;87.57
46129;BME280;31860;45.186;5.790;2022-12-07T05:15:58;99233.25;;;7.38;87.60
46129;BME280;31860;45.186;5.790;2022-12-07T05:18:24;99229.78;;;7.39;88.06
46129;BME280;31860;45.186;5.790;2022-12-07T05:20:49;99224.59;;;7.39;88.22
46129;BME280;31860;45.186;5.790;2022-12-07T05:23:16;99228.91;;;7.37;88.51
46129;BME280;31860;45.186;5.790;2022-12-07T05:25:41;99215.91;;;7.37;88.90
46129;BME280;31860;45.186;5.790;2022-12-07T05:28:07;99217.69;;;7.38;89.39
46129;BME280;31860;45.186;5.790;2022-12-07T05:30:33;99220.28;;;7.40;89.44
46129;BME280;31860;45.186;5.790;2022-12-07T05:32:58;99203.81;;;7.39;88.55
46129;BME280;31860;45.186;5.790;2022-12-07T05:35:23;99209.00;;;7.39;87.93
46129;BME280;31860;45.186;5.790;2022-12-07T05:37:49;99199.50;;;7.40;87.70
46129;BME280;31860;45.186;5.790;2022-12-07T05:40:15;99204.72;;;7.41;87.29
46129;BME280;31860;45.186;5.790;2022-12-07T05:42:41;99202.13;;;7.41;87.21
46129;BME280;31860;45.186;5.790;2022-12-07T05:45:08;99201.28;;;7.42;86.86
46129;BME280;31860;45.186;5.790;2022-12-07T05:47:34;99197.81;;;7.43;86.37
46129;BME280;31860;45.186;5.790;2022-12-07T05:49:59;99199.53;;;7.41;85.91
46129;BME280;31860;45.186;5.790;2022-12-07T05:52:24;99206.47;;;7.42;85.44
46129;BME280;31860;45.186;5.790;2022-12-07T05:54:51;99203.88;;;7.41;85.08
46129;BME280;31860;45.186;5.790;2022-12-07T05:57:16;99211.66;;;7.42;84.75
46129;BME280;31860;45.186;5.790;2022-12-07T05:59:42;99209.91;;;7.41;84.50
46129;BME280;31860;45.186;5.790;2022-12-07T06:02:12;99213.38;;;7.40;84.19
46129;BME280;31860;45.186;5.790;2022-12-07T06:04:40;99217.72;;;7.43;83.92
46129;BME280;31860;45.186;5.790;2022-12-07T06:07:07;99211.66;;;7.41;84.07
46129;BME280;31860;45.186;5.790;2022-12-07T06:09:34;99224.66;;;7.41;84.55
46129;BME280;31860;45.186;5.790;2022-12-07T06:11:59;99214.25;;;7.41;84.34
46129;BME280;31860;45.186;5.790;2022-12-07T06:14:44;99217.72;;;7.43;84.01
46129;BME280;31860;45.186;5.790;2022-12-07T06:17:10;99217.72;;;7.43;83.89
46129;BME280;31860;45.186;5.790;2022-12-07T06:19:35;99216.88;;;7.44;83.79
46129;BME280;31860;45.186;5.790;2022-12-07T06:22:01;99216.88;;;7.44;83.59
46129;BME280;31860;45.186;5.790;2022-12-07T06:24:28;99210.81;;;7.45;83.53
46129;BME280;31860;45.186;5.790;2022-12-07T06:26:54;99216.00;;;7.45;83.23
46129;BME280;31860;45.186;5.790;2022-12-07T06:29:19;99220.38;;;7.47;83.12
46129;BME280;31860;45.186;5.790;2022-12-07T06:31:45;99220.38;;;7.47;82.93
46129;BME280;31860;45.186;5.790;2022-12-07T06:34:13;99218.66;;;7.48;82.90
46129;BME280;31860;45.186;5.790;2022-12-07T06:36:40;99218.66;;;7.48;83.07
46129;BME280;31860;45.186;5.790;2022-12-07T06:39:06;99211.75;;;7.48;82.46
46129;BME280;31860;45.186;5.790;2022-12-07T06:41:37;99209.13;;;7.47;82.46
46129;BME280;31860;45.186;5.790;2022-12-07T06:44:07;99208.25;;;7.46;82.46
46129;BME280;31860;45.186;5.790;2022-12-07T06:46:32;99215.16;;;7.44;82.47
46129;BME280;31860;45.186;5.790;2022-12-07T06:48:58;99218.59;;;7.45;82.12
46129;BME280;31860;45.186;5.790;2022-12-07T06:51:24;99212.56;;;7.44;82.09
46129;BME280;31860;45.186;5.790;2022-12-07T06:53:49;99216.00;;;7.45;81.89
46129;BME280;31860;45.186;5.790;2022-12-07T06:56:15;99211.66;;;7.42;82.21
46129;BME280;31860;45.186;5.790;2022-12-07T06:58:40;99210.81;;;7.43;82.10
46129;BME280;31860;45.186;5.790;2022-12-07T07:01:12;99215.09;;;7.41;82.44
46129;BME280;31860;45.186;5.790;2022-12-07T07:03:38;99209.00;;;7.39;82.64
46129;BME280;31860;45.186;5.790;2022-12-07T07:06:04;99211.66;;;7.41;82.52
46129;BME280;31860;45.186;5.790;2022-12-07T07:08:29;99204.72;;;7.41;81.85
46129;BME280;31860;45.186;5.790;2022-12-07T07:10:56;99212.50;;;7.40;81.42
46129;BME280;31860;45.186;5.790;2022-12-07T07:13:22;99215.97;;;7.42;81.23
46129;BME280;31860;45.186;5.790;2022-12-07T07:15:47;99209.91;;;7.41;81.00
46129;BME280;31860;45.186;5.790;2022-12-07T07:18:13;99212.50;;;7.41;81.38
46129;BME280;31860;45.186;5.790;2022-12-07T07:20:39;99215.97;;;7.42;81.31
46129;BME280;31860;45.186;5.790;2022-12-07T07:23:05;99211.66;;;7.42;81.29
46129;BME280;31860;45.186;5.790;2022-12-07T07:25:31;99212.53;;;7.43;81.30
46129;BME280;31860;45.186;5.790;2022-12-07T07:27:57;99220.31;;;7.43;81.34
46129;BME280;31860;45.186;5.790;2022-12-07T07:30:23;99228.97;;;7.42;81.27
46129;BME280;31860;45.186;5.790;2022-12-07T07:32:48;99221.16;;;7.40;81.32
46129;BME280;31860;45.186;5.790;2022-12-07T07:35:14;99224.59;;;7.39;81.63
46129;BME280;31860;45.186;5.790;2022-12-07T07:37:39;99231.50;;;7.37;82.04
46129;BME280;31860;45.186;5.790;2022-12-07T07:40:08;99227.16;;;7.35;82.46
46129;BME280;31860;45.186;5.790;2022-12-07T07:42:34;99232.34;;;7.35;82.91
46129;BME280;31860;45.186;5.790;2022-12-07T07:45:00;99229.78;;;7.36;82.64
46129;BME280;31860;45.186;5.790;2022-12-07T07:47:25;99239.28;;;7.37;82.93
46129;BME280;31860;45.186;5.790;2022-12-07T07:49:51;99234.09;;;7.37;82.58
46129;BME280;31860;45.186;5.790;2022-12-07T07:52:16;99228.94;;;7.39;82.08
46129;BME280;31860;45.186;5.790;2022-12-07T07:54:42;99229.78;;;7.38;81.31
46129;BME280;31860;45.186;5.790;2022-12-07T07:57:07;99231.56;;;7.40;81.15
46129;BME280;31860;45.186;5.790;2022-12-07T07:59:33;99232.41;;;7.39;81.09
46129;BME280;31860;45.186;5.790;2022-12-07T08:01:58;99223.75;;;7.40;81.15
46129;BME280;31860;45.186;5.790;2022-12-07T08:04:24;99217.69;;;7.40;81.21
46129;BME280;31860;45.186;5.790;2022-12-07T08:06:49;99227.19;;;7.39;80.88
46129;BME280;31860;45.186;5.790;2022-12-07T08:09:15;99227.19;;;7.39;80.88
46129;BME280;31860;45.186;5.790;2022-12-07T08:11:40;99223.75;;;7.40;80.67
46129;BME280;31860;45.186;5.790;2022-12-07T08:14:06;99228.97;;;7.40;80.43
46129;BME280;31860;45.186;5.790;2022-12-07T08:16:31;99230.72;;;7.43;80.34
46129;BME280;31860;45.186;5.790;2022-12-07T08:18:57;99224.66;;;7.41;80.31
46129;BME280;31860;45.186;5.790;2022-12-07T08:21:23;99236.75;;;7.40;80.80
46129;BME280;31860;45.186;5.790;2022-12-07T08:23:49;99238.47;;;7.40;81.04
46129;BME280;31860;45.186;5.790;2022-12-07T08:26:16;99241.97;;;7.40;80.66
46129;BME280;31860;45.186;5.790;2022-12-07T08:28:42;99245.44;;;7.41;80.78
46129;BME280;31860;45.186;5.790;2022-12-07T08:31:14;99243.66;;;7.40;80.61
46129;BME280;31860;45.186;5.790;2022-12-07T08:33:40;99249.75;;;7.40;80.95
46129;BME280;31860;45.186;5.790;2022-12-07T08:36:08;99253.16;;;7.38;80.78
46129;BME280;31860;45.186;5.790;2022-12-07T08:38:35;99241.06;;;7.38;81.08
46129;BME280;31860;45.186;5.790;2022-12-07T08:41:00;99252.34;;;7.40;80.99
46129;BME280;31860;45.186;5.790;2022-12-07T08:43:26;99250.59;;;7.39;80.71
46129;BME280;31860;45.186;5.790;2022-12-07T08:46:02;99253.22;;;7.41;80.72
46129;BME280;31860;45.186;5.790;2022-12-07T08:48:29;99251.47;;;7.40;80.48
46129;BME280;31860;45.186;5.790;2022-12-07T08:50:55;99264.47;;;7.41;80.86
46129;BME280;31860;45.186;5.790;2022-12-07T08:53:21;99256.66;;;7.40;80.76
46129;BME280;31860;45.186;5.790;2022-12-07T08:55:46;99259.28;;;7.41;81.13
46129;BME280;31860;45.186;5.790;2022-12-07T08:58:13;99259.25;;;7.40;81.15
46129;BME280;31860;45.186;5.790;2022-12-07T09:00:38;99258.44;;;7.42;81.35
46129;BME280;31860;45.186;5.790;2022-12-07T09:03:04;99260.16;;;7.43;81.04
46129;BME280;31860;45.186;5.790;2022-12-07T09:05:29;99263.66;;;7.45;80.95
46129;BME280;31860;45.186;5.790;2022-12-07T09:07:57;99267.13;;;7.44;81.21
46129;BME280;31860;45.186;5.790;2022-12-07T09:10:25;99267.13;;;7.44;81.77
46129;BME280;31860;45.186;5.790;2022-12-07T09:12:51;99271.44;;;7.44;81.45
46129;BME280;31860;45.186;5.790;2022-12-07T09:15:16;99274.03;;;7.42;81.10
46129;BME280;31860;45.186;5.790;2022-12-07T09:17:42;99274.03;;;7.42;81.00
46129;BME280;31860;45.186;5.790;2022-12-07T09:20:07;99274.03;;;7.44;82.02
46129;BME280;31860;45.186;5.790;2022-12-07T09:22:33;99277.53;;;7.46;82.47
46129;BME280;31860;45.186;5.790;2022-12-07T09:24:59;99282.72;;;7.46;81.92
46129;BME280;31860;45.186;5.790;2022-12-07T09:27:26;99282.72;;;7.46;82.04
46129;BME280;31860;45.186;5.790;2022-12-07T09:29:52;99275.81;;;7.46;81.88
46129;BME280;31860;45.186;5.790;2022-12-07T09:32:17;99286.22;;;7.48;81.73
46129;BME280;31860;45.186;5.790;2022-12-07T09:34:43;99268.91;;;7.48;81.50
46129;BME280;31860;45.186;5.790;2022-12-07T09:37:09;99281.03;;;7.49;81.40
46129;BME280;31860;45.186;5.790;2022-12-07T09:39:37;99281.94;;;7.50;81.81
46129;BME280;31860;45.186;5.790;2022-12-07T09:42:04;99278.44;;;7.49;81.71
46129;BME280;31860;45.186;5.790;2022-12-07T09:44:29;99275.03;;;7.52;81.46
46129;BME280;31860;45.186;5.790;2022-12-07T09:46:56;99272.38;;;7.50;81.28
46129;BME280;31860;45.186;5.790;2022-12-07T09:49:24;99277.56;;;7.50;80.83
46129;BME280;31860;45.186;5.790;2022-12-07T09:52:26;99285.38;;;7.50;81.63
46129;BME280;31860;45.186;5.790;2022-12-07T09:54:52;99280.19;;;7.50;81.85
46129;BME280;31860;45.186;5.790;2022-12-07T09:57:25;99269.81;;;7.52;81.73
46129;BME280;31860;45.186;5.790;2022-12-07T09:59:53;99268.06;;;7.51;81.14
46129;BME280;31860;45.186;5.790;2022-12-07T10:04:59;99262.94;;;7.54;81.08
46129;BME280;31860;45.186;5.790;2022-12-07T10:07:25;99260.28;;;7.52;81.22
46129;BME280;31860;45.186;5.790;2022-12-07T10:09:50;99261.16;;;7.51;81.55
46129;BME280;31860;45.186;5.790;2022-12-07T10:12:16;99255.97;;;7.53;81.85
46129;BME280;31860;45.186;5.790;2022-12-07T10:15:00;99248.19;;;7.54;81.56
46129;BME280;31860;45.186;5.790;2022-12-07T10:17:40;99248.19;;;7.54;81.34
46129;BME280;31860;45.186;5.790;2022-12-07T10:22:38;99243.03;;;7.56;80.91
46129;BME280;31860;45.186;5.790;2022-12-07T10:25:19;99236.97;;;7.57;80.82
46129;BME280;31860;45.186;5.790;2022-12-07T10:28:00;99240.44;;;7.56;81.21
46129;BME280;31860;45.186;5.790;2022-12-07T10:30:26;99236.94;;;7.55;80.63
46129;BME280;31860;45.186;5.790;2022-12-07T10:32:52;99230.88;;;7.56;80.80
46129;BME280;31860;45.186;5.790;2022-12-07T10:35:23;99231.78;;;7.58;80.53
46129;BME280;31860;45.186;5.790;2022-12-07T10:37:50;99222.25;;;7.57;80.17
46129;BME280;31860;45.186;5.790;2022-12-07T10:40:35;99218.78;;;7.58;80.02
46129;BME280;31860;45.186;5.790;2022-12-07T10:43:02;99217.09;;;7.60;79.67
46129;BME280;31860;45.186;5.790;2022-12-07T10:45:28;99212.75;;;7.61;79.57
46129;BME280;31860;45.186;5.790;2022-12-07T11:06:53;99200.69;;;7.66;78.92
46129;BME280;31860;45.186;5.790;2022-12-07T11:15:00;99191.16;;;7.66;78.24
46129;BME280;31860;45.186;5.790;2022-12-07T11:17:45;99183.38;;;7.68;77.46
46129;BME280;31860;45.186;5.790;2022-12-07T11:25:48;99176.47;;;7.70;76.56
46129;BME280;31860;45.186;5.790;2022-12-07T11:34:36;99167.78;;;7.68;76.71
46129;BME280;31860;45.186;5.790;2022-12-07T11:36:54;99168.66;;;7.68;76.93
46129;BME280;31860;45.186;5.790;2022-12-07T11:39:37;99165.19;;;7.69;77.25
46129;BME280;31860;45.186;5.790;2022-12-07T11:44:56;99163.47;;;7.70;76.82
46129;BME280;31860;45.186;5.790;2022-12-07T11:47:30;99166.06;;;7.70;76.60
46129;BME280;31860;45.186;5.790;2022-12-07T11:55:17;99147.88;;;7.70;75.89
46129;BME280;31860;45.186;5.790;2022-12-07T11:57:46;99143.56;;;7.71;75.65
46129;BME280;31860;45.186;5.790;2022-12-07T12:00:17;99144.47;;;7.74;75.19
46129;BME280;31860;45.186;5.790;2022-12-07T12:02:44;99145.34;;;7.75;75.24
46129;BME280;31860;45.186;5.790;2022-12-07T12:05:21;99145.34;;;7.76;75.17
46129;BME280;31860;45.186;5.790;2022-12-07T12:07:59;99143.66;;;7.78;74.93
46129;BME280;31860;45.186;5.790;2022-12-07T12:13:26;99140.19;;;7.81;74.20
46129;BME280;31860;45.186;5.790;2022-12-07T12:21:26;99134.16;;;7.82;74.26
46129;BME280;31860;45.186;5.790;2022-12-07T12:24:03;99139.34;;;7.83;73.86
46129;BME280;31860;45.186;5.790;2022-12-07T12:26:33;99136.75;;;7.83;73.31
46129;BME280;31860;45.186;5.790;2022-12-07T12:29:02;99132.44;;;7.84;73.17
46129;BME280;31860;45.186;5.790;2022-12-07T12:33:58;99131.59;;;7.86;72.58
46129;BME280;31860;45.186;5.790;2022-12-07T12:47:00;99138.53;;;7.90;72.46
46129;BME280;31860;45.186;5.790;2022-12-07T12:49:38;99135.97;;;7.92;72.17
46129;BME280;31860;45.186;5.790;2022-12-07T12:54:59;99122.97;;;7.92;73.03
46129;BME280;31860;45.186;5.790;2022-12-07T12:57:32;99122.09;;;7.90;72.80
46129;BME280;31860;45.186;5.790;2022-12-07T13:00:00;99125.59;;;7.92;72.53
46129;BME280;31860;45.186;5.790;2022-12-07T13:02:30;99125.59;;;7.92;72.16
46129;BME280;31860;45.186;5.790;2022-12-07T13:05:28;99122.97;;;7.92;72.47
46129;BME280;31860;45.186;5.790;2022-12-07T13:08:01;99119.50;;;7.91;72.48
46129;BME280;31860;45.186;5.790;2022-12-07T13:15:47;99120.38;;;7.92;72.21
46129;BME280;31860;45.186;5.790;2022-12-07T13:28:48;99101.31;;;7.96;72.43
46129;BME280;31860;45.186;5.790;2022-12-07T13:31:32;99092.69;;;7.95;72.53
46129;BME280;31860;45.186;5.790;2022-12-07T13:33:59;99089.19;;;7.96;72.51
46129;BME280;31860;45.186;5.790;2022-12-07T13:36:25;99085.75;;;7.99;72.56
46129;BME280;31860;45.186;5.790;2022-12-07T13:38:56;99084.00;;;7.98;72.43
46129;BME280;31860;45.186;5.790;2022-12-07T13:41:24;99084.00;;;7.98;71.92
46129;BME280;31860;45.186;5.790;2022-12-07T13:46:41;99080.53;;;7.96;71.70
46129;BME280;31860;45.186;5.790;2022-12-07T13:49:19;99075.31;;;7.94;71.71
46129;BME280;31860;45.186;5.790;2022-12-07T13:51:44;99077.91;;;7.96;72.17
46129;BME280;31860;45.186;5.790;2022-12-07T13:54:11;99082.28;;;7.95;72.41
46129;BME280;31860;45.186;5.790;2022-12-07T13:56:37;99082.28;;;7.95;72.29
46129;BME280;31860;45.186;5.790;2022-12-07T13:59:25;99081.41;;;7.96;72.30
46129;BME280;31860;45.186;5.790;2022-12-07T14:01:52;99079.69;;;7.97;72.60
46129;BME280;31860;45.186;5.790;2022-12-07T14:04:40;99085.75;;;7.97;72.56
46129;BME280;31860;45.186;5.790;2022-12-07T14:10:40;99080.56;;;7.99;72.18
46129;BME280;31860;45.186;5.790;2022-12-07T14:15:57;99084.00;;;7.98;71.60
46129;BME280;31860;45.186;5.790;2022-12-07T14:18:39;99081.41;;;7.98;71.51
46129;BME280;31860;45.186;5.790;2022-12-07T14:21:14;99082.28;;;7.98;71.42
46129;BME280;31860;45.186;5.790;2022-12-07T14:23:41;99086.59;;;7.98;71.50
46129;BME280;31860;45.186;5.790;2022-12-07T14:26:07;99084.91;;;8.00;71.71
46129;BME280;31860;45.186;5.790;2022-12-07T14:28:35;99083.16;;;7.97;71.23
46129;BME280;31860;45.186;5.790;2022-12-07T14:31:01;99090.09;;;7.98;71.48
46129;BME280;31860;45.186;5.790;2022-12-07T14:33:27;99089.22;;;7.98;71.55
46129;BME280;31860;45.186;5.790;2022-12-07T14:35:53;99080.56;;;7.99;71.67
46129;BME280;31860;45.186;5.790;2022-12-07T14:38:23;99084.91;;;8.00;71.66
46129;BME280;31860;45.186;5.790;2022-12-07T14:40:50;99081.44;;;7.99;71.94
46129;BME280;31860;45.186;5.790;2022-12-07T14:43:17;99080.56;;;7.99;72.13
46129;BME280;31860;45.186;5.790;2022-12-07T14:45:43;99084.88;;;7.97;71.98
46129;BME280;31860;45.186;5.790;2022-12-07T14:48:15;99081.41;;;7.96;72.59
46129;BME280;31860;45.186;5.790;2022-12-07T14:50:44;99081.41;;;7.96;71.70
46129;BME280;31860;45.186;5.790;2022-12-07T14:53:16;99082.28;;;7.97;71.82
46129;BME280;31860;45.186;5.790;2022-12-07T14:55:42;99078.78;;;7.95;71.71
46129;BME280;31860;45.186;5.790;2022-12-07T14:58:15;99077.06;;;7.95;71.70
46129;BME280;31860;45.186;5.790;2022-12-07T15:00:41;99084.88;;;7.94;71.62
46129;BME280;31860;45.186;5.790;2022-12-07T15:03:06;99077.91;;;7.93;71.57
46129;BME280;31860;45.186;5.790;2022-12-07T15:05:32;99077.03;;;7.92;71.43
46129;BME280;31860;45.186;5.790;2022-12-07T15:07:58;99074.41;;;7.91;71.43
46129;BME280;31860;45.186;5.790;2022-12-07T15:10:28;99072.69;;;7.90;71.35
46129;BME280;31860;45.186;5.790;2022-12-07T15:12:54;99061.41;;;7.88;71.54
46129;BME280;31860;45.186;5.790;2022-12-07T15:15:19;99068.31;;;7.86;71.55
46129;BME280;31860;45.186;5.790;2022-12-07T15:17:45;99067.44;;;7.85;71.55
46129;BME280;31860;45.186;5.790;2022-12-07T15:20:13;99070.91;;;7.86;71.37
46129;BME280;31860;45.186;5.790;2022-12-07T15:22:38;99063.13;;;7.86;71.24
46129;BME280;31860;45.186;5.790;2022-12-07T15:25:04;99071.75;;;7.83;71.02
46129;BME280;31860;45.186;5.790;2022-12-07T15:27:31;99066.56;;;7.82;71.55
46129;BME280;31860;45.186;5.790;2022-12-07T15:29:56;99063.06;;;7.80;71.60
46129;BME280;31860;45.186;5.790;2022-12-07T15:32:22;99066.53;;;7.80;71.62
46129;BME280;31860;45.186;5.790;2022-12-07T15:34:48;99063.06;;;7.80;71.94
46129;BME280;31860;45.186;5.790;2022-12-07T15:37:15;99060.47;;;7.80;71.69
46129;BME280;31860;45.186;5.790;2022-12-07T15:39:40;99050.06;;;7.81;71.57